Time;durP1;ratioP1;P1;durP2;ratioP2;P2;SDS_P1;SDS_P2;PMS_P1;PMS_P2;Temp;Humidity;BMP_temperature;BMP_pressure;BME280_temperature;BME280_humidity;BME280_pressure;Samples;Min_cycle;Max_cycle;Signal;HPM_P1;HPM_P2
2021/09/01 00:00:36;;;;;;;2.95;2.63;;;;;;;29.12;61.37;100813.28;5061986;27;70464;-42
2021/09/01 00:03:07;;;;;;;3.15;2.90;;;;;;;29.19;62.64;100819.50;5059562;27;66204;-44
2021/09/01 00:05:38;;;;;;;3.17;2.90;;;;;;;29.25;62.98;100825.91;5063436;27;70309;-45
2021/09/01 00:08:09;;;;;;;4.22;3.28;;;;;;;29.30;63.65;100837.75;5073863;27;65581;-44
2021/09/01 00:10:40;;;;;;;5.25;4.05;;;;;;;29.35;63.88;100845.25;5071053;27;70501;-43
2021/09/01 00:13:11;;;;;;;4.77;3.60;;;;;;;29.38;64.87;100839.41;5073528;27;66224;-44
2021/09/01 00:15:42;;;;;;;4.85;4.13;;;;;;;29.43;65.52;100841.50;5070961;27;69580;-44
2021/09/01 00:18:13;;;;;;;6.10;5.00;;;;;;;29.49;64.74;100846.88;5073069;27;65880;-43
2021/09/01 00:21:05;;;;;;;10.88;6.30;;;;;;;29.53;65.56;100841.84;5069318;27;69409;-43
2021/09/01 00:24:06;;;;;;;12.93;7.47;;;;;;;29.37;66.55;100830.47;5079944;27;67914;-43
2021/09/01 00:26:37;;;;;;;20.33;8.93;;;;;;;29.59;66.42;100852.66;5069140;27;70183;-44
2021/09/01 00:29:08;;;;;;;18.17;8.07;;;;;;;29.58;67.50;100839.34;5053966;28;66154;-43
2021/09/01 00:31:39;;;;;;;13.23;6.40;;;;;;;29.60;68.32;100856.19;5086380;27;71743;-44
2021/09/01 00:34:10;;;;;;;7.65;5.95;;;;;;;29.54;68.30;100851.66;5068380;27;65567;-43
2021/09/01 00:36:41;;;;;;;6.15;5.55;;;;;;;29.50;69.15;100855.78;5074282;27;69860;-43
2021/09/01 00:39:12;;;;;;;8.13;4.88;;;;;;;29.48;68.88;100852.50;5068387;27;65910;-43
2021/09/01 00:41:43;;;;;;;5.28;4.88;;;;;;;29.49;68.99;100851.44;5070329;27;70417;-44
2021/09/01 00:44:23;;;;;;;5.40;4.90;;;;;;;29.57;69.27;100870.13;5071728;27;65884;-43
2021/09/01 00:46:55;;;;;;;4.88;4.30;;;;;;;29.60;68.81;100870.53;5068819;27;70372;-42
2021/09/01 00:49:29;;;;;;;5.40;4.88;;;;;;;29.60;69.01;100880.53;5072249;27;66425;-42
2021/09/01 00:52:01;;;;;;;;;;;;;;;29.36;69.31;100874.75;5077536;27;69993;-48
2021/09/01 00:54:32;;;;;;;;;;;;;;;29.42;69.45;100899.25;5069410;27;66300;-43
2021/09/01 00:57:06;;;;;;;5.75;5.38;;;;;;;29.63;68.79;100899.06;5065504;27;70397;-42
2021/09/01 00:59:42;;;;;;;6.18;5.68;;;;;;;29.66;68.92;100889.69;5068580;27;65812;-42
2021/09/01 01:02:13;;;;;;;5.60;5.28;;;;;;;29.67;68.46;100897.59;5070137;27;70280;-44
2021/09/01 01:04:45;;;;;;;;;;;;;;;29.35;69.54;100873.09;5066838;27;66654;-42
2021/09/01 01:07:20;;;;;;;4.90;4.60;;;;;;;29.69;68.85;100898.19;5070817;27;70348;-42
2021/09/01 01:09:51;;;;;;;5.25;4.95;;;;;;;29.74;68.71;100902.97;5073474;27;66258;-42
2021/09/01 01:12:43;;;;;;;5.03;4.72;;;;;;;29.74;68.42;100902.97;5067583;27;69400;-42
2021/09/01 01:15:14;;;;;;;5.65;5.25;;;;;;;29.79;69.11;100901.31;5079684;27;65928;-44
2021/09/01 01:17:48;;;;;;;5.65;5.25;;;;;;;29.78;69.17;100896.94;5078517;27;70266;-41
2021/09/01 01:20:25;;;;;;;6.65;6.00;;;;;;;29.81;68.96;100904.63;5068963;27;65864;-42
2021/09/01 01:23:18;;;;;;;7.35;6.75;;;;;;;29.85;69.05;100905.03;5067517;27;70515;-41
2021/09/01 01:25:50;;;;;;;7.88;7.35;;;;;;;29.84;69.10;100909.63;5073047;27;66087;-42
2021/09/01 01:28:21;;;;;;;;;;;;;;;29.67;69.81;100903.00;5068916;27;70704;-42
2021/09/01 01:30:57;;;;;;;8.00;7.22;;;;;;;29.89;69.28;100900.00;5076426;27;65551;-42
2021/09/01 01:33:32;;;;;;;7.97;7.30;;;;;;;29.91;69.34;100900.63;5077691;27;69955;-42
2021/09/01 01:36:07;;;;;;;7.93;7.28;;;;;;;29.96;69.32;100906.25;5078998;27;65198;-42
2021/09/01 01:38:38;;;;;;;11.05;7.95;;;;;;;30.00;69.67;100907.47;5084871;27;70392;-41
2021/09/01 01:41:12;;;;;;;8.18;7.43;;;;;;;30.04;69.11;100898.72;5073271;27;66336;-42
2021/09/01 01:43:47;;;;;;;8.27;7.45;;;;;;;30.07;69.28;100889.34;5053763;27;43176;-43
2021/09/01 01:46:22;;;;;;;7.78;7.35;;;;;;;30.13;68.99;100895.78;5064441;27;66147;-42
2021/09/01 01:48:54;;;;;;;7.72;7.00;;;;;;;30.15;68.59;100893.69;5066293;27;70964;-41
2021/09/01 01:51:25;;;;;;;7.95;7.25;;;;;;;30.19;68.19;100903.03;5065701;27;65711;-42
2021/09/01 01:53:56;;;;;;;11.38;9.95;;;;;;;30.21;68.51;100899.06;5069338;27;70211;-44
2021/09/01 01:56:28;;;;;;;9.85;8.95;;;;;;;30.24;68.49;100906.78;5071673;27;66264;-43
2021/09/01 01:58:59;;;;;;;11.85;8.50;;;;;;;30.25;68.43;100903.00;5066989;27;70274;-43
2021/09/01 02:01:30;;;;;;;8.82;8.05;;;;;;;30.26;67.73;100907.41;5064237;27;65427;-43
2021/09/01 02:04:03;;;;;;;9.48;8.50;;;;;;;30.32;68.31;100902.16;5067851;27;70290;-42
2021/09/01 02:06:35;;;;;;;9.23;8.40;;;;;;;30.37;67.61;100907.75;5079477;27;66464;-42
2021/09/01 02:09:07;;;;;;;14.68;8.70;;;;;;;30.40;68.20;100907.34;5088852;27;69552;-42
2021/09/01 02:11:37;;;;;;;9.07;8.30;;;;;;;30.43;67.72;100906.91;5073980;27;67159;-43
2021/09/01 02:14:09;;;;;;;10.67;8.47;;;;;;;30.44;68.21;100900.44;5077179;27;68934;-42
2021/09/01 02:16:40;;;;;;;9.30;8.55;;;;;;;30.50;68.32;100902.25;5067001;27;66798;-43
2021/09/01 02:19:11;;;;;;;9.25;8.30;;;;;;;30.53;67.30;100901.81;5078386;27;70039;-43
2021/09/01 02:21:46;;;;;;;10.05;8.70;;;;;;;30.54;67.29;100892.69;5069224;27;65553;-42
2021/09/01 02:24:18;;;;;;;15.43;9.52;;;;;;;30.58;67.24;100896.59;5075278;27;70184;-42
2021/09/01 02:26:53;;;;;;;8.95;8.35;;;;;;;30.57;67.03;100886.00;5078140;27;65246;-41
2021/09/01 02:29:24;;;;;;;9.00;8.30;;;;;;;30.62;67.03;100895.13;5071470;27;71533;-41
2021/09/01 02:31:55;;;;;;;9.23;8.63;;;;;;;30.64;67.43;100893.00;5078028;27;67192;-41
2021/09/01 02:34:30;;;;;;;9.70;8.80;;;;;;;30.67;67.24;100892.59;5069034;27;69924;-43
2021/09/01 02:37:01;;;;;;;9.52;8.93;;;;;;;30.64;67.27;100879.47;5060835;27;65735;-41
2021/09/01 02:39:33;;;;;;;8.65;7.90;;;;;;;30.75;66.93;100894.19;5072734;27;70674;-47
2021/09/01 02:42:05;;;;;;;9.35;8.68;;;;;;;30.77;67.09;100891.28;5076091;27;65876;-42
2021/09/01 02:44:37;;;;;;;10.03;9.17;;;;;;;30.78;66.54;100882.09;5075000;27;70488;-42
2021/09/01 02:47:10;;;;;;;9.30;8.80;;;;;;;30.82;66.69;100883.34;5071808;27;66155;-42
2021/09/01 02:49:41;;;;;;;10.25;9.25;;;;;;;30.78;66.80;100876.66;5067354;27;69977;-42
2021/09/01 02:52:12;;;;;;;8.73;8.10;;;;;;;30.87;67.74;100892.47;5077341;27;67449;-41
2021/09/01 02:54:43;;;;;;;8.18;7.57;;;;;;;30.89;67.01;100894.94;5071443;27;70716;-40
2021/09/01 02:57:14;;;;;;;8.03;7.20;;;;;;;30.94;67.47;100898.66;5072602;27;65949;-42
2021/09/01 02:59:45;;;;;;;8.43;7.90;;;;;;;30.89;67.12;100881.41;5074220;27;70370;-41
2021/09/01 03:02:19;;;;;;;6.90;6.60;;;;;;;30.92;67.67;100884.53;5074430;27;66848;-41
2021/09/01 03:04:51;;;;;;;7.10;6.63;;;;;;;31.00;67.47;100896.94;5063995;27;70462;-42
2021/09/01 03:07:22;;;;;;;6.60;6.30;;;;;;;30.97;66.82;100886.56;5068628;27;65848;-43
2021/09/01 03:09:53;;;;;;;;;;;;;;;30.76;67.54;100884.19;5075585;27;70473;-41
2021/09/01 03:12:24;;;;;;;6.32;5.82;;;;;;;30.96;67.17;100884.91;5074729;27;66937;-41
2021/09/01 03:14:56;;;;;;;6.47;5.97;;;;;;;30.99;67.12;100889.88;5074106;27;70125;-42
2021/09/01 03:17:27;;;;;;;6.57;6.13;;;;;;;31.00;67.03;100879.88;5068949;27;66199;-41
2021/09/01 03:19:58;;;;;;;5.40;5.00;;;;;;;31.00;66.82;100882.56;5072281;27;69829;-42
2021/09/01 03:22:30;;;;;;;5.13;4.80;;;;;;;31.00;66.79;100880.69;5072488;27;66007;-42
2021/09/01 03:25:01;;;;;;;5.53;5.13;;;;;;;31.01;66.62;100871.53;5076907;27;69574;-43
2021/09/01 03:27:33;;;;;;;5.32;4.93;;;;;;;31.02;66.35;100866.94;5070748;27;65528;-41
2021/09/01 03:30:05;;;;;;;4.35;4.05;;;;;;;31.00;66.49;100864.44;5075156;27;69910;-41
2021/09/01 03:32:37;;;;;;;5.28;4.68;;;;;;;31.09;66.38;100879.38;5071561;27;66408;-40
2021/09/01 03:35:09;;;;;;;5.10;4.70;;;;;;;31.12;66.51;100862.69;5066911;27;69951;-42
2021/09/01 03:37:41;;;;;;;4.70;4.40;;;;;;;31.12;66.41;100865.38;5070085;27;65590;-41
2021/09/01 03:40:12;;;;;;;4.60;4.20;;;;;;;31.13;66.13;100863.50;5078200;27;69508;-41
2021/09/01 03:42:44;;;;;;;5.05;4.68;;;;;;;31.16;65.74;100863.88;5074494;27;66494;-41
2021/09/01 03:45:16;;;;;;;4.82;4.47;;;;;;;31.07;65.82;100848.97;5075633;27;70455;-42
2021/09/01 03:47:50;;;;;;;4.75;4.45;;;;;;;31.19;65.39;100865.31;5078050;27;66013;-40
2021/09/01 03:50:20;;;;;;;4.28;4.05;;;;;;;31.20;65.26;100858.84;5068747;27;70063;-41
2021/09/01 03:52:52;;;;;;;4.10;3.70;;;;;;;31.24;65.42;100860.06;5070242;27;66155;-40
2021/09/01 03:55:23;;;;;;;3.83;3.50;;;;;;;31.24;65.33;100853.81;5065194;27;71021;-42
2021/09/01 03:57:54;;;;;;;10.18;3.90;;;;;;;31.30;64.89;100847.50;5066497;27;65813;-42
2021/09/01 04:00:25;;;;;;;3.70;3.50;;;;;;;31.27;64.85;100842.53;5066232;27;70115;-41
2021/09/01 04:02:57;;;;;;;4.00;3.70;;;;;;;31.34;64.94;100846.84;5083427;27;65803;-42
2021/09/01 04:05:28;;;;;;;3.78;3.33;;;;;;;31.33;64.83;100837.03;5083847;27;69791;-40
2021/09/01 04:07:59;;;;;;;3.72;3.42;;;;;;;31.35;64.51;100834.94;5077215;27;66491;-41
2021/09/01 04:10:32;;;;;;;3.55;3.25;;;;;;;31.42;65.21;100832.16;5070040;27;68794;-41
2021/09/01 04:13:03;;;;;;;3.95;3.55;;;;;;;31.26;64.73;100809.19;5064930;27;65805;-41
2021/09/01 04:15:34;;;;;;;4.22;3.80;;;;;;;31.39;64.79;100833.44;5071116;27;70815;-41
2021/09/01 04:18:05;;;;;;;4.70;3.92;;;;;;;31.45;64.96;100831.72;5077745;27;66885;-42
2021/09/01 04:20:36;;;;;;;3.50;3.20;;;;;;;31.44;64.50;100827.34;5066285;27;69385;-42
2021/09/01 04:23:07;;;;;;;3.63;3.42;;;;;;;31.47;64.47;100826.91;5073723;27;66055;-41
2021/09/01 04:25:39;;;;;;;4.32;4.03;;;;;;;31.53;64.70;100819.75;5078691;27;70118;-42
2021/09/01 04:28:10;;;;;;;4.75;3.83;;;;;;;31.53;64.60;100817.84;5087279;27;66376;-40
2021/09/01 04:30:41;;;;;;;3.90;3.60;;;;;;;31.53;64.17;100808.91;5068382;27;70070;-42
2021/09/01 04:33:12;;;;;;;4.30;3.45;;;;;;;31.54;64.02;100800.56;5075196;27;66115;-41
2021/09/01 04:35:43;;;;;;;5.00;3.47;;;;;;;31.55;64.19;100796.78;5075420;27;69507;-41
2021/09/01 04:38:13;;;;;;;3.42;3.22;;;;;;;31.55;63.73;100790.53;5082541;27;66103;-41
2021/09/01 04:40:44;;;;;;;3.83;3.53;;;;;;;31.55;63.82;100785.94;5071762;27;69568;-42
2021/09/01 04:43:15;;;;;;;3.75;3.45;;;;;;;31.56;63.41;100787.56;5071504;27;66355;-42
2021/09/01 04:45:46;;;;;;;4.15;3.40;;;;;;;31.54;63.46;100784.28;5082290;27;69451;-42
2021/09/01 04:48:17;;;;;;;3.70;3.40;;;;;;;31.58;63.99;100785.47;5073127;27;66465;-41
2021/09/01 04:50:47;;;;;;;3.35;3.15;;;;;;;31.59;63.45;100765.47;5067745;27;70712;-41
2021/09/01 04:53:19;;;;;;;3.92;3.28;;;;;;;31.64;63.54;100772.06;5070531;27;65486;-41
2021/09/01 04:55:50;;;;;;;3.08;2.90;;;;;;;31.67;63.65;100764.28;5077612;27;70268;-41
2021/09/01 04:58:21;;;;;;;3.63;3.20;;;;;;;31.72;63.30;100763.63;5061090;27;66340;-41
2021/09/01 05:00:55;;;;;;;2.88;2.67;;;;;;;31.75;63.80;100752.31;5069407;27;70497;-41
2021/09/01 05:03:27;;;;;;;3.35;3.10;;;;;;;31.79;63.74;100750.81;5074639;27;65779;-41
2021/09/01 05:05:58;;;;;;;3.17;2.97;;;;;;;31.85;63.26;100752.59;5078946;27;69699;-42
2021/09/01 05:08:29;;;;;;;3.33;3.05;;;;;;;31.88;63.34;100744.00;5076932;27;65962;-41
2021/09/01 05:11:00;;;;;;;3.67;3.33;;;;;;;31.91;63.28;100740.84;5072275;27;70086;-42
2021/09/01 05:13:31;;;;;;;5.83;3.23;;;;;;;31.93;63.65;100730.59;5051730;27;66980;-42
2021/09/01 05:16:02;;;;;;;3.90;3.60;;;;;;;31.88;63.97;100706.03;5071551;27;69332;-42
2021/09/01 05:18:34;;;;;;;3.22;2.92;;;;;;;31.84;63.80;100707.53;5071382;27;65783;-43
2021/09/01 05:21:06;;;;;;;7.32;2.72;;;;;;;31.82;62.14;100710.47;5068601;27;70702;-47
2021/09/01 05:23:39;;;;;;;3.83;2.22;;;;;;;31.75;60.93;100709.75;5059835;27;66221;-41
2021/09/01 05:26:10;;;;;;;10.93;2.63;;;;;;;31.58;59.60;100704.13;5074405;27;69359;-43
2021/09/01 05:28:44;;;;;;;8.00;2.60;;;;;;;31.26;59.33;100667.41;5079783;27;65000;-44
2021/09/01 05:31:17;;;;;;;3.72;2.28;;;;;;;31.45;59.11;100709.72;5075318;27;70845;-44
2021/09/01 05:33:50;;;;;;;6.00;2.40;;;;;;;31.15;59.08;100667.16;5067298;27;65372;-42
2021/09/01 05:36:22;;;;;;;9.82;2.78;;;;;;;31.25;57.93;100687.44;5073255;27;70701;-42
2021/09/01 05:38:54;;;;;;;;;;;;;;;30.96;58.19;100705.31;5068516;27;66335;-42
2021/09/01 05:41:31;;;;;;;3.22;2.40;;;;;;;31.14;56.54;100694.44;5072011;27;70277;-41
2021/09/01 05:44:03;;;;;;;5.90;1.95;;;;;;;31.12;56.56;100688.41;5068035;27;66006;-41
2021/09/01 05:46:35;;;;;;;6.43;1.85;;;;;;;31.03;55.39;100658.09;5062919;27;69391;-42
2021/09/01 05:49:06;;;;;;;4.03;2.00;;;;;;;31.01;54.91;100670.22;5068296;27;65600;-43
2021/09/01 05:51:38;;;;;;;2.40;2.20;;;;;;;30.99;54.40;100678.59;5062844;27;68990;-41
2021/09/01 05:54:09;;;;;;;3.13;2.47;;;;;;;31.00;54.63;100674.00;5061328;27;66086;-42
2021/09/01 05:56:45;;;;;;;2.40;2.17;;;;;;;30.94;52.74;100664.88;5068967;27;70053;-43
2021/09/01 05:59:21;;;;;;;1.92;1.83;;;;;;;30.89;52.82;100657.44;5071597;27;66126;-43
2021/09/01 06:01:58;;;;;;;2.20;1.98;;;;;;;30.91;52.18;100657.22;5053991;27;69920;-45
2021/09/01 06:04:35;;;;;;;9.18;2.10;;;;;;;30.88;52.20;100649.53;5069026;27;66375;-42
2021/09/01 06:07:12;;;;;;;1.90;1.70;;;;;;;30.81;51.07;100641.47;5070963;27;70324;-43
2021/09/01 06:09:46;;;;;;;1.90;1.70;;;;;;;30.86;51.18;100646.22;5068234;27;66044;-42
2021/09/01 06:12:23;;;;;;;1.48;1.35;;;;;;;30.80;49.49;100645.25;5068488;27;70443;-43
2021/09/01 06:14:54;;;;;;;6.70;1.70;;;;;;;30.74;50.13;100624.47;5067384;27;66079;-43
2021/09/01 06:17:25;;;;;;;;;;;;;;;30.49;49.08;100629.94;5058096;27;70437;-42
2021/09/01 06:19:56;;;;;;;1.65;1.45;;;;;;;30.75;49.27;100622.56;5071478;27;66305;-42
2021/09/01 06:22:27;;;;;;;2.17;1.50;;;;;;;30.78;49.29;100616.72;5064289;27;69583;-42
2021/09/01 06:24:58;;;;;;;4.50;1.75;;;;;;;30.78;49.04;100614.00;5077491;27;65959;-42
2021/09/01 06:27:30;;;;;;;;;;;;;;;30.49;47.64;100600.16;5078217;27;69797;-43
2021/09/01 06:30:01;;;;;;;1.70;1.33;;;;;;;30.71;48.07;100601.38;5063328;27;66223;-43
2021/09/01 06:32:32;;;;;;;5.90;1.20;;;;;;;30.76;47.84;100597.16;5075855;27;70145;-43
2021/09/01 06:35:03;;;;;;;3.30;1.45;;;;;;;30.74;47.05;100586.56;5088533;27;66414;-42
2021/09/01 06:37:37;;;;;;;1.40;1.30;;;;;;;30.76;46.66;100589.03;5077586;27;69457;-41
2021/09/01 06:40:10;;;;;;;1.75;1.55;;;;;;;30.75;47.09;100581.97;5079171;27;66509;-43
2021/09/01 06:42:41;;;;;;;1.85;1.10;;;;;;;30.75;46.35;100569.25;5080127;27;70168;-42
2021/09/01 06:45:13;;;;;;;2.45;1.05;;;;;;;30.77;46.00;100566.31;5084423;27;66090;-43
2021/09/01 06:47:45;;;;;;;1.42;1.33;;;;;;;30.79;46.63;100558.81;5080446;27;70160;-42
2021/09/01 06:50:18;;;;;;;2.15;1.50;;;;;;;30.72;46.67;100539.91;5080949;27;66233;-43
2021/09/01 06:52:50;;;;;;;3.35;1.25;;;;;;;30.84;46.10;100545.41;5077011;27;69552;-43
2021/09/01 06:55:23;;;;;;;1.42;1.33;;;;;;;30.89;46.08;100549.09;5080334;27;65636;-42
2021/09/01 06:57:54;;;;;;;1.48;1.38;;;;;;;30.92;45.64;100545.09;5075063;27;69850;-42
2021/09/01 07:00:25;;;;;;;1.77;1.63;;;;;;;30.94;45.54;100540.28;5078621;27;65451;-42
2021/09/01 07:02:57;;;;;;;2.20;1.30;;;;;;;30.93;46.10;100528.63;5077429;27;70341;-42
2021/09/01 07:05:31;;;;;;;2.20;1.70;;;;;;;30.97;45.01;100529.00;5079196;27;65972;-42
2021/09/01 07:08:24;;;;;;;1.80;1.70;;;;;;;30.95;44.89;100520.28;5081772;27;70322;-42
2021/09/01 07:10:55;;;;;;;1.50;1.40;;;;;;;31.07;45.51;100523.88;5072630;27;66175;-42
2021/09/01 07:13:27;;;;;;;1.60;1.50;;;;;;;31.10;45.11;100520.69;5084340;27;70186;-42
2021/09/01 07:16:12;;;;;;;1.33;1.23;;;;;;;31.15;45.05;100512.72;5078160;27;65968;-43
2021/09/01 07:19:11;;;;;;;1.33;1.23;;;;;;;31.15;45.15;100515.41;5075467;27;70725;-42
2021/09/01 07:21:42;;;;;;;1.40;1.30;;;;;;;31.14;45.48;100513.75;5075033;27;66019;-43
2021/09/01 07:24:13;;;;;;;1.48;1.38;;;;;;;31.20;44.84;100516.59;5083063;27;70200;-42
2021/09/01 07:26:45;;;;;;;1.52;1.40;;;;;;;31.16;44.77;100511.63;5086316;27;66245;-43
2021/09/01 07:29:18;;;;;;;4.50;1.48;;;;;;;31.19;44.65;100506.81;5073719;27;70013;-42
2021/09/01 07:31:49;;;;;;;6.00;1.60;;;;;;;31.23;44.34;100499.88;5082054;27;66028;-42
2021/09/01 07:34:21;;;;;;;4.30;1.55;;;;;;;31.25;44.15;100503.19;5074958;27;69961;-44
2021/09/01 07:36:52;;;;;;;2.20;1.70;;;;;;;31.29;44.09;100493.53;5066833;27;66522;-42
2021/09/01 07:39:24;;;;;;;1.67;1.58;;;;;;;31.34;45.62;100485.50;5074513;27;70005;-42
2021/09/01 07:41:55;;;;;;;2.33;1.73;;;;;;;31.33;44.85;100475.75;5070268;27;65754;-42
2021/09/01 07:44:26;;;;;;;2.63;1.90;;;;;;;31.42;44.74;100468.13;5071946;27;70159;-43
2021/09/01 07:46:59;;;;;;;1.83;1.73;;;;;;;31.46;44.18;100472.84;5076102;27;66131;-43
2021/09/01 07:49:30;;;;;;;2.17;2.08;;;;;;;31.50;43.49;100467.78;5066985;27;70491;-43
2021/09/01 07:52:03;;;;;;;1.90;1.80;;;;;;;31.54;43.42;100467.09;5079174;27;65534;-43
2021/09/01 07:54:42;;;;;;;1.60;1.50;;;;;;;31.54;43.26;100469.81;5070778;27;69580;-43
2021/09/01 07:57:13;;;;;;;2.47;1.80;;;;;;;31.63;43.65;100461.31;5068799;27;65338;-43
2021/09/01 07:59:45;;;;;;;1.70;1.60;;;;;;;31.66;43.58;100447.28;5073527;27;69958;-43
2021/09/01 08:02:17;;;;;;;1.98;1.88;;;;;;;31.61;42.56;100443.38;5068150;27;66471;-43
2021/09/01 08:04:48;;;;;;;1.88;1.77;;;;;;;31.68;42.72;100447.84;5070664;27;70078;-43
2021/09/01 08:07:21;;;;;;;2.22;2.03;;;;;;;31.59;42.34;100440.09;5074406;27;66684;-43
2021/09/01 08:09:52;;;;;;;3.72;1.90;;;;;;;31.75;42.94;100459.41;5076288;27;70870;-44
2021/09/01 08:12:24;;;;;;;2.63;2.45;;;;;;;31.78;42.44;100453.53;5075717;27;65778;-43
2021/09/01 08:14:56;;;;;;;3.58;2.00;;;;;;;31.75;42.44;100443.16;5066572;27;69289;-43
2021/09/01 08:17:27;;;;;;;2.67;1.98;;;;;;;31.74;41.69;100446.94;5070738;27;66103;-43
2021/09/01 08:20:01;;;;;;;2.22;2.03;;;;;;;31.72;42.51;100443.63;5070379;27;70486;-43
2021/09/01 08:22:33;;;;;;;3.03;2.20;;;;;;;31.74;41.76;100444.22;5052508;27;66470;-42
2021/09/01 08:25:06;;;;;;;2.22;2.13;;;;;;;31.72;41.65;100439.03;5064410;27;69872;-42
2021/09/01 08:27:37;;;;;;;2.53;2.33;;;;;;;31.69;41.89;100433.25;5080532;27;64155;-42
2021/09/01 08:30:09;;;;;;;2.20;2.10;;;;;;;31.65;41.68;100432.06;5075284;27;70671;-43
2021/09/01 08:32:40;;;;;;;;;;;;;;;31.38;41.72;100433.38;5064118;27;65674;-43
2021/09/01 08:35:11;;;;;;;9.98;2.97;;;;;;;31.59;46.36;100429.25;5075962;27;70661;-41
2021/09/01 08:37:43;;;;;;;18.20;3.92;;;;;;;31.68;48.34;100426.16;5072172;27;66155;-43
2021/09/01 08:40:14;;;;;;;7.20;4.38;;;;;;;31.73;48.56;100423.56;5074246;27;70432;-43
2021/09/01 08:42:47;;;;;;;6.82;4.07;;;;;;;31.81;48.74;100431.34;5070411;27;66304;-42
2021/09/01 08:45:18;;;;;;;12.73;4.95;;;;;;;31.89;49.31;100427.44;5070000;27;70172;-42
2021/09/01 08:47:50;;;;;;;11.60;4.20;;;;;;;32.00;49.80;100430.16;5068555;27;65608;-43
2021/09/01 08:50:21;;;;;;;9.50;4.18;;;;;;;32.09;52.04;100429.81;5068872;27;69322;-42
2021/09/01 08:52:52;;;;;;;8.82;4.38;;;;;;;32.21;53.90;100428.72;5070230;27;67107;-42
2021/09/01 08:55:23;;;;;;;15.32;5.43;;;;;;;32.31;55.75;100436.22;5065063;27;72171;-42
2021/09/01 08:57:56;;;;;;;10.07;4.78;;;;;;;32.41;56.47;100431.00;5075459;27;66513;-42
2021/09/01 09:00:27;;;;;;;5.88;5.22;;;;;;;32.49;57.08;100435.28;5073161;27;69461;-44
2021/09/01 09:03:00;;;;;;;13.25;5.35;;;;;;;32.50;57.24;100434.19;5068744;27;66448;-42
2021/09/01 09:05:37;;;;;;;10.85;5.13;;;;;;;32.61;57.79;100446.09;5053496;28;70088;-43
2021/09/01 09:08:14;;;;;;;6.25;4.97;;;;;;;32.36;58.35;100389.38;5070282;27;66254;-44
2021/09/01 09:10:47;;;;;;;5.70;4.80;;;;;;;32.36;58.04;100390.19;5072888;27;70478;-44
2021/09/01 09:13:34;;;;;;;6.20;4.70;;;;;;;32.42;58.80;100401.97;5069992;27;65565;-44
2021/09/01 09:16:09;;;;;;;8.15;4.65;;;;;;;32.81;59.16;100461.94;5072012;27;70022;-44
2021/09/01 09:18:41;;;;;;;6.35;5.75;;;;;;;32.83;59.65;100470.66;5071729;27;66165;-44
2021/09/01 09:21:20;;;;;;;10.27;5.30;;;;;;;32.78;59.50;100448.84;5073647;27;70238;-43
2021/09/01 09:23:54;;;;;;;8.38;6.82;;;;;;;32.62;59.19;100409.69;5064194;27;66060;-43
2021/09/01 09:26:33;;;;;;;14.20;9.98;;;;;;;32.94;59.53;100448.88;5069268;27;70351;-44
2021/09/01 09:29:18;;;;;;;17.75;12.98;;;;;;;32.75;59.37;100417.56;5061061;27;66160;-43
2021/09/01 09:32:06;;;;;;;14.10;12.65;;;;;;;32.96;59.60;100442.34;5063002;27;70151;-43
2021/09/01 09:34:42;;;;;;;17.17;15.15;;;;;;;32.75;59.48;100393.13;5063702;27;66097;-43
2021/09/01 09:37:14;;;;;;;21.00;14.40;;;;;;;32.72;59.32;100388.16;5080009;27;70318;-43
2021/09/01 09:39:51;;;;;;;17.63;15.07;;;;;;;32.62;59.51;100374.41;5068316;27;66501;-43
2021/09/01 09:42:37;;;;;;;17.15;15.43;;;;;;;32.67;59.82;100388.06;5067856;27;69411;-45
2021/09/01 09:45:24;;;;;;;27.52;15.15;;;;;;;32.92;60.67;100434.69;5071923;27;66834;-44
2021/09/01 09:47:56;;;;;;;17.40;15.45;;;;;;;32.96;60.46;100439.63;5070307;27;70380;-43
2021/09/01 09:50:27;;;;;;;;;;;;;;;32.72;61.33;100447.91;5068439;27;66838;-41
2021/09/01 09:52:57;;;;;;;17.02;14.55;;;;;;;32.97;60.40;100457.59;5068379;27;70086;-41
2021/09/01 09:55:29;;;;;;;25.20;16.07;;;;;;;32.96;60.87;100470.38;5065279;27;66942;-42
2021/09/01 09:58:01;;;;;;;27.48;15.98;;;;;;;32.93;60.55;100479.84;5066993;27;69819;-42
2021/09/01 10:00:31;;;;;;;16.48;14.75;;;;;;;32.98;61.65;100489.13;5067402;27;65629;-44
2021/09/01 10:03:04;;;;;;;19.75;15.63;;;;;;;33.06;60.14;100496.91;5067141;27;69874;-43
2021/09/01 10:05:34;;;;;;;;;;;;;;;32.85;61.66;100501.97;5072859;27;67377;-42
2021/09/01 10:08:05;;;;;;;16.92;15.23;;;;;;;33.04;60.18;100488.19;5068668;27;70086;-43
2021/09/01 10:10:37;;;;;;;20.43;17.87;;;;;;;32.87;59.64;100455.50;5088808;27;65594;-44
2021/09/01 10:13:11;;;;;;;;;;;;;;;32.93;60.58;100514.31;5077156;27;69968;-44
2021/09/01 10:15:42;;;;;;;22.15;16.15;;;;;;;33.10;59.34;100498.09;5073505;27;65881;-44
2021/09/01 10:18:15;;;;;;;18.85;17.05;;;;;;;33.18;59.17;100515.88;5065945;27;69878;-44
2021/09/01 10:20:47;;;;;;;22.58;16.38;;;;;;;33.19;59.51;100512.94;5060790;27;65649;-44
2021/09/01 10:23:34;;;;;;;19.20;15.88;;;;;;;33.15;59.14;100515.31;5067175;27;69745;-44
2021/09/01 10:26:26;;;;;;;24.15;16.58;;;;;;;33.08;59.05;100516.53;5066941;27;65878;-43
2021/09/01 10:29:01;;;;;;;16.38;14.75;;;;;;;32.83;58.67;100463.34;5068005;27;69675;-43
2021/09/01 10:31:36;;;;;;;19.92;14.43;;;;;;;33.14;58.65;100527.25;5074885;27;65927;-43
2021/09/01 10:34:21;;;;;;;17.60;15.23;;;;;;;32.83;59.13;100482.34;5067168;27;69559;-43
2021/09/01 10:36:54;;;;;;;14.82;12.73;;;;;;;33.13;58.80;100524.78;5069779;27;65774;-43
2021/09/01 10:39:30;;;;;;;15.65;13.30;;;;;;;33.09;59.27;100535.28;5063218;27;69836;-44
2021/09/01 10:42:34;;;;;;;15.35;12.70;;;;;;;32.96;59.38;100532.00;5070230;27;66638;-44
2021/09/01 10:45:16;;;;;;;14.20;12.43;;;;;;;33.07;59.35;100531.16;5058931;27;70607;-43
2021/09/01 10:47:53;;;;;;;14.32;13.00;;;;;;;33.07;59.56;100532.00;5063771;27;66349;-44
2021/09/01 10:50:26;;;;;;;12.55;11.35;;;;;;;33.11;59.37;100543.22;5075986;27;70352;-44
2021/09/01 10:53:07;;;;;;;24.50;16.52;;;;;;;33.09;59.63;100539.91;5064728;27;66123;-44
2021/09/01 10:55:51;;;;;;;18.33;13.60;;;;;;;33.01;59.92;100537.59;5064178;27;70116;-44
2021/09/01 10:58:33;;;;;;;13.30;11.63;;;;;;;33.03;60.17;100552.56;5058751;27;66221;-44
2021/09/01 11:01:13;;;;;;;14.32;11.40;;;;;;;32.89;60.08;100533.00;5058674;27;69682;-44
2021/09/01 11:03:54;;;;;;;12.73;11.07;;;;;;;33.04;60.20;100575.13;5064476;27;65399;-44
2021/09/01 11:06:26;;;;;;;9.93;8.85;;;;;;;32.97;60.58;100569.81;5068340;27;69332;-42
2021/09/01 11:09:07;;;;;;;10.60;9.60;;;;;;;32.66;60.55;100555.63;5075337;27;65669;-42
2021/09/01 11:11:55;;;;;;;10.68;9.75;;;;;;;32.70;61.16;100581.22;5070197;27;70743;-42
2021/09/01 11:14:38;;;;;;;10.63;9.70;;;;;;;32.75;61.14;100596.00;5065875;27;66274;-42
2021/09/01 11:17:12;;;;;;;7.97;7.38;;;;;;;32.73;61.87;100601.66;5069054;27;70717;-42
2021/09/01 11:19:45;;;;;;;7.95;6.95;;;;;;;32.66;60.64;100606.41;5075276;27;65210;-45
2021/09/01 11:22:19;;;;;;;6.53;5.57;;;;;;;32.32;59.39;100551.91;5070351;27;70278;-44
2021/09/01 11:24:52;;;;;;;8.88;5.10;;;;;;;32.46;59.00;100590.50;5076361;27;66492;-44
2021/09/01 11:27:27;;;;;;;10.25;4.10;;;;;;;32.39;58.29;100590.59;5071000;27;69983;-44
2021/09/01 11:30:12;;;;;;;9.20;3.55;;;;;;;31.78;57.51;100529.47;5070353;27;65716;-45
2021/09/01 11:32:43;;;;;;;9.02;2.95;;;;;;;32.19;57.55;100593.66;5070486;27;69420;-43
2021/09/01 11:35:22;;;;;;;4.10;3.47;;;;;;;32.12;56.02;100605.69;5064226;27;66889;-44
2021/09/01 11:38:02;;;;;;;2.80;2.60;;;;;;;32.04;55.19;100615.84;5070961;27;69235;-43
2021/09/01 11:40:40;;;;;;;1.80;1.70;;;;;;;31.95;54.60;100628.09;5076424;27;66425;-44
2021/09/01 11:43:20;;;;;;;2.38;1.90;;;;;;;31.89;54.12;100639.84;5071552;27;68788;-44
2021/09/01 11:45:52;;;;;;;1.65;1.48;;;;;;;31.79;53.51;100645.03;5076099;27;65347;-43
2021/09/01 11:48:22;;;;;;;1.10;1.08;;;;;;;31.74;53.44;100663.88;5075808;27;69827;-44
2021/09/01 11:50:53;;;;;;;1.35;1.25;;;;;;;31.69;52.30;100667.28;5075156;27;65562;-45
2021/09/01 11:53:44;;;;;;;2.33;1.10;;;;;;;31.64;51.68;100682.59;5059028;27;70462;-44